createdAt,value
2023-04-02T00:00:40.057Z,2.28
2023-04-02T00:01:40.465Z,2.25
2023-04-02T00:02:40.773Z,2.25
2023-04-02T00:03:41.162Z,2.24
2023-04-02T00:04:41.479Z,2.22
2023-04-02T00:05:41.851Z,2.18
2023-04-02T00:06:42.135Z,2.26
2023-04-02T00:07:42.505Z,2.26
2023-04-02T00:08:42.839Z,2.28
2023-04-02T00:09:43.199Z,2.26
2023-04-02T00:10:43.584Z,2.24
2023-04-02T00:11:43.912Z,2.25
2023-04-02T00:12:44.268Z,2.32
2023-04-02T00:13:44.601Z,2.31
2023-04-02T00:14:44.954Z,2.28
2023-04-02T00:15:45.347Z,2.25
2023-04-02T00:16:45.717Z,2.25
2023-04-02T00:17:46.077Z,2.31
2023-04-02T00:18:46.387Z,2.39
2023-04-02T00:19:46.763Z,2.39
2023-04-02T00:20:47.125Z,2.35
2023-04-02T00:21:47.494Z,2.31
2023-04-02T00:22:47.848Z,2.28
2023-04-02T00:23:48.189Z,2.24
2023-04-02T00:24:48.564Z,2.25
2023-04-02T00:25:48.927Z,2.24
2023-04-02T00:26:49.279Z,2.24
2023-04-02T00:27:49.624Z,2.22
2023-04-02T00:28:49.989Z,2.22
2023-04-02T00:29:50.365Z,2.25
2023-04-02T00:30:50.742Z,2.28
2023-04-02T00:31:51.094Z,2.28
2023-04-02T00:32:51.455Z,2.26
2023-04-02T00:33:51.769Z,2.38
2023-04-02T00:34:52.114Z,2.38
2023-04-02T00:35:52.533Z,2.35
2023-04-02T00:36:52.842Z,2.32
2023-04-02T00:37:53.193Z,2.36
2023-04-02T00:38:53.570Z,2.43
2023-04-02T00:39:53.882Z,2.46
2023-04-02T00:40:54.281Z,2.44
2023-04-02T00:41:54.590Z,2.36
2023-04-02T00:42:54.944Z,2.35
2023-04-02T00:43:55.298Z,2.38
2023-04-02T00:44:55.664Z,2.36
2023-04-02T00:45:56.102Z,2.32
2023-04-02T00:46:56.415Z,2.32
2023-04-02T00:47:56.825Z,2.32
2023-04-02T00:48:57.090Z,2.35
2023-04-02T00:49:57.457Z,2.31
2023-04-02T00:50:57.835Z,2.31
2023-04-02T00:51:58.179Z,2.26
2023-04-02T00:52:58.529Z,2.29
2023-04-02T00:53:58.913Z,2.31
2023-04-02T00:54:59.227Z,2.32
2023-04-02T00:55:59.601Z,2.33
2023-04-02T00:56:59.970Z,2.29
2023-04-02T00:58:00.350Z,2.28
2023-04-02T00:59:00.601Z,2.26
2023-04-02T01:00:00.974Z,2.20
2023-04-02T01:01:01.371Z,2.20
2023-04-02T01:02:01.721Z,2.24
2023-04-02T01:03:02.099Z,2.22
2023-04-02T01:04:02.385Z,2.24
2023-04-02T01:05:02.872Z,2.20
2023-04-02T01:06:03.096Z,2.17
2023-04-02T01:07:03.445Z,2.15
2023-04-02T01:08:03.807Z,2.15
2023-04-02T01:09:04.241Z,2.18
2023-04-02T01:10:04.536Z,2.18
2023-04-02T01:11:04.887Z,2.14
2023-04-02T01:12:05.213Z,2.13
2023-04-02T01:13:05.561Z,2.10
2023-04-02T01:14:06.029Z,2.14
2023-04-02T01:15:06.315Z,2.14
2023-04-02T01:16:06.654Z,2.14
2023-04-02T01:17:06.990Z,2.14
2023-04-02T01:18:07.450Z,2.14
2023-04-02T01:19:07.698Z,2.13
2023-04-02T01:20:08.075Z,2.14
2023-04-02T01:21:08.463Z,2.18
2023-04-02T01:22:08.776Z,2.18
2023-04-02T01:23:09.125Z,2.22
2023-04-02T01:24:09.505Z,2.20
2023-04-02T01:25:09.880Z,2.15
2023-04-02T01:26:10.222Z,2.14
2023-04-02T01:27:10.536Z,2.17
2023-04-02T01:28:10.911Z,2.22
2023-04-02T01:29:11.268Z,2.24
2023-04-02T01:30:11.636Z,2.17
2023-04-02T01:31:12.028Z,2.14
2023-04-02T01:32:12.367Z,2.14
2023-04-02T01:33:12.726Z,2.15
2023-04-02T01:34:13.076Z,2.18
2023-04-02T01:35:13.481Z,2.15
2023-04-02T01:36:13.862Z,2.11
2023-04-02T01:37:14.154Z,2.14
2023-04-02T01:38:14.501Z,2.14
2023-04-02T01:39:14.858Z,2.08
2023-04-02T01:40:15.209Z,2.08
2023-04-02T01:41:15.561Z,2.10
2023-04-02T01:42:15.932Z,2.08
2023-04-02T01:43:16.271Z,2.07
2023-04-02T01:44:16.651Z,2.10
2023-04-02T01:45:16.973Z,2.06
2023-04-02T01:46:17.397Z,2.04
2023-04-02T01:47:17.691Z,2.02
2023-04-02T01:48:18.039Z,2.07
2023-04-02T01:49:18.402Z,2.07
2023-04-02T01:50:18.756Z,1.99
2023-04-02T01:51:19.145Z,2.06
2023-04-02T01:52:19.476Z,2.11
2023-04-02T01:53:19.833Z,2.07
2023-04-02T01:54:20.183Z,2.07
2023-04-02T01:55:20.541Z,2.08
2023-04-02T01:56:20.901Z,2.04
2023-04-02T01:57:21.473Z,2.04
2023-04-02T01:58:21.586Z,2.00
2023-04-02T01:59:21.938Z,2.07
2023-04-02T02:00:22.335Z,2.10
2023-04-02T02:01:22.783Z,2.11
2023-04-02T02:02:23.107Z,2.10
2023-04-02T02:03:23.428Z,2.07
2023-04-02T02:04:23.724Z,2.10
2023-04-02T02:05:24.091Z,2.10
2023-04-02T02:06:24.446Z,2.04
2023-04-02T02:07:24.787Z,2.07
2023-04-02T02:08:25.145Z,2.08
2023-04-02T02:09:25.591Z,2.11
2023-04-02T02:10:25.887Z,2.10
2023-04-02T02:11:26.262Z,2.14
2023-04-02T02:12:26.570Z,2.42
2023-04-02T02:13:26.937Z,2.36
2023-04-02T02:14:27.304Z,2.47
2023-04-02T02:15:27.643Z,2.47
2023-04-02T02:16:28.045Z,2.42
2023-04-02T02:17:28.391Z,2.50
2023-04-02T02:18:28.685Z,2.53
2023-04-02T02:19:29.066Z,2.49
2023-04-02T02:20:29.420Z,2.43
2023-04-02T02:21:29.812Z,2.46
2023-04-02T02:22:30.126Z,2.42
2023-04-02T02:23:30.489Z,2.47
2023-04-02T02:24:30.857Z,2.47
2023-04-02T02:25:31.236Z,2.43
2023-04-02T02:26:31.568Z,2.36
2023-04-02T02:27:31.896Z,2.38
2023-04-02T02:28:32.311Z,2.47
2023-04-02T02:29:32.640Z,2.49
2023-04-02T02:30:32.996Z,2.53
2023-04-02T02:31:33.405Z,2.49
2023-04-02T02:32:33.719Z,2.46
2023-04-02T02:33:34.047Z,2.47
2023-04-02T02:34:34.426Z,2.47
2023-04-02T02:35:35.269Z,2.44
2023-04-02T02:36:35.160Z,2.43
2023-04-02T02:37:35.478Z,2.44
2023-04-02T02:38:35.848Z,2.43
2023-04-02T02:39:36.267Z,2.39
2023-04-02T02:40:36.556Z,2.42
2023-04-02T02:41:36.998Z,2.39
2023-04-02T02:42:37.278Z,2.42
2023-04-02T02:43:37.665Z,2.39
2023-04-02T02:44:38.024Z,2.43
2023-04-02T02:45:38.409Z,2.46
2023-04-02T02:46:38.743Z,2.44
2023-04-02T02:47:39.097Z,2.47
2023-04-02T02:48:39.376Z,2.43
2023-04-02T02:49:39.748Z,2.47
2023-04-02T02:50:40.108Z,2.44
2023-04-02T02:51:40.482Z,2.42
2023-04-02T02:52:40.803Z,2.42
2023-04-02T02:53:41.159Z,2.36
2023-04-02T02:54:41.540Z,2.39
2023-04-02T02:55:41.921Z,2.35
2023-04-02T02:56:42.262Z,2.32
2023-04-02T02:57:42.573Z,2.31
2023-04-02T02:58:42.968Z,2.32
2023-04-02T02:59:43.296Z,2.31
2023-04-02T03:00:43.624Z,2.33
2023-04-02T03:01:44.027Z,2.33
2023-04-02T03:02:44.470Z,2.35
2023-04-02T03:03:44.906Z,2.32
2023-04-02T03:04:44.997Z,2.35
2023-04-02T03:05:45.369Z,2.31
2023-04-02T03:06:45.752Z,2.33
2023-04-02T03:07:46.067Z,2.31
2023-04-02T03:08:46.469Z,2.33
2023-04-02T03:09:46.768Z,2.33
2023-04-02T03:10:47.140Z,2.33
2023-04-02T03:11:47.516Z,2.29
2023-04-02T03:12:47.828Z,2.26
2023-04-02T03:13:48.190Z,2.31
2023-04-02T03:14:48.547Z,2.26
2023-04-02T03:15:48.928Z,2.22
2023-04-02T03:16:49.280Z,2.31
2023-04-02T03:17:49.697Z,2.28
2023-04-02T03:18:49.991Z,2.26
2023-04-02T03:19:50.355Z,2.22
2023-04-02T03:20:50.751Z,2.17
2023-04-02T03:21:51.122Z,2.22
2023-04-02T03:22:51.426Z,2.28
2023-04-02T03:23:51.787Z,2.24
2023-04-02T03:24:52.153Z,2.14
2023-04-02T03:25:52.519Z,2.17
2023-04-02T03:26:52.894Z,2.22
2023-04-02T03:27:53.235Z,2.17
2023-04-02T03:28:53.632Z,2.18
2023-04-02T03:29:53.954Z,2.17
2023-04-02T03:30:54.331Z,2.15
2023-04-02T03:31:54.687Z,2.14
2023-04-02T03:32:55.170Z,2.13
2023-04-02T03:33:55.411Z,2.13
2023-04-02T03:34:55.764Z,2.10
2023-04-02T03:35:56.186Z,2.08
2023-04-02T03:36:56.516Z,2.08
2023-04-02T03:37:56.836Z,2.04
2023-04-02T03:38:57.195Z,2.02
2023-04-02T03:39:57.551Z,2.00
2023-04-02T03:40:57.922Z,1.99
2023-04-02T03:41:58.341Z,1.97
2023-04-02T03:42:58.631Z,1.99
2023-04-02T03:43:58.978Z,2.02
2023-04-02T03:44:59.335Z,1.97
2023-04-02T03:45:59.686Z,2.04
2023-04-02T03:47:00.112Z,2.06
2023-04-02T03:48:00.438Z,2.04
2023-04-02T03:49:00.731Z,1.97
2023-04-02T03:50:01.119Z,1.97
2023-04-02T03:51:01.502Z,1.99
2023-04-02T03:52:01.824Z,2.00
2023-04-02T03:53:02.167Z,2.00
2023-04-02T03:54:02.530Z,1.99
2023-04-02T03:55:02.884Z,1.97
2023-04-02T03:56:03.270Z,1.95
2023-04-02T03:57:03.650Z,1.91
2023-04-02T03:58:03.957Z,1.94
2023-04-02T03:59:04.313Z,1.99
2023-04-02T04:00:04.650Z,2.00
2023-04-02T04:01:04.994Z,2.00
2023-04-02T04:02:05.402Z,2.00
2023-04-02T04:03:05.760Z,1.95
2023-04-02T04:04:06.062Z,1.94
2023-04-02T04:05:06.391Z,1.89
2023-04-02T04:06:06.745Z,1.87
2023-04-02T04:07:07.122Z,1.94
2023-04-02T04:08:07.490Z,2.00
2023-04-02T04:09:07.832Z,1.95
2023-04-02T04:10:08.197Z,1.91
2023-04-02T04:11:08.599Z,1.91
2023-04-02T04:12:08.923Z,1.89
2023-04-02T04:13:09.250Z,1.84
2023-04-02T04:14:09.622Z,1.81
2023-04-02T04:15:09.996Z,1.78
2023-04-02T04:16:10.365Z,1.80
2023-04-02T04:17:10.750Z,1.92
2023-04-02T04:18:10.810Z,1.92
2023-04-02T04:19:10.969Z,1.92
2023-04-02T04:20:11.123Z,1.89
2023-04-02T04:21:11.423Z,1.88
2023-04-02T04:22:11.880Z,1.88
2023-04-02T04:23:12.071Z,1.91
2023-04-02T04:24:12.370Z,1.84
2023-04-02T04:25:12.751Z,1.81
2023-04-02T04:26:12.986Z,1.84
2023-04-02T04:27:13.303Z,1.81
2023-04-02T04:28:13.560Z,1.80
2023-04-02T04:29:13.868Z,1.81
2023-04-02T04:30:14.190Z,1.84
2023-04-02T04:31:14.323Z,1.85
2023-04-02T04:32:14.651Z,1.84
2023-04-02T04:33:14.817Z,1.84
2023-04-02T04:34:15.082Z,1.84
2023-04-02T04:35:15.351Z,1.78
2023-04-02T04:36:15.667Z,1.78
2023-04-02T04:37:15.966Z,1.76
2023-04-02T04:38:16.107Z,1.77
2023-04-02T04:39:16.378Z,1.76
2023-04-02T04:40:16.663Z,1.77
2023-04-02T04:41:16.956Z,1.81
2023-04-02T04:42:17.287Z,1.85
2023-04-02T04:43:17.556Z,1.84
2023-04-02T04:44:17.865Z,1.85
2023-04-02T04:45:18.134Z,1.87
2023-04-02T04:46:18.515Z,1.87
2023-04-02T04:47:18.789Z,1.84
2023-04-02T04:48:19.036Z,1.89
2023-04-02T04:49:19.316Z,1.87
2023-04-02T04:50:19.475Z,1.85
2023-04-02T04:51:19.651Z,1.84
2023-04-02T04:52:19.827Z,1.80
2023-04-02T04:53:19.991Z,1.74
2023-04-02T04:54:20.154Z,1.76
2023-04-02T04:55:20.336Z,1.77
2023-04-02T04:56:20.514Z,1.87
2023-04-02T04:57:20.686Z,1.87
2023-04-02T04:58:20.828Z,1.84
2023-04-02T04:59:20.977Z,1.80
2023-04-02T05:00:21.294Z,1.78
2023-04-02T05:01:21.633Z,1.80
2023-04-02T05:02:21.773Z,1.77
2023-04-02T05:03:21.938Z,1.77
2023-04-02T05:04:22.107Z,1.77
2023-04-02T05:05:22.275Z,1.77
2023-04-02T05:06:22.536Z,1.80
2023-04-02T05:07:22.775Z,1.81
2023-04-02T05:08:22.840Z,1.80
2023-04-02T05:09:22.949Z,1.77
2023-04-02T05:10:23.217Z,1.78
2023-04-02T05:11:23.410Z,1.80
2023-04-02T05:12:23.606Z,1.85
2023-04-02T05:13:23.753Z,1.84
2023-04-02T05:14:24.052Z,1.89
2023-04-02T05:15:24.232Z,1.88
2023-04-02T05:16:24.496Z,1.91
2023-04-02T05:17:24.597Z,1.92
2023-04-02T05:18:24.724Z,1.95
2023-04-02T05:19:24.913Z,1.99
2023-04-02T05:20:25.112Z,1.99
2023-04-02T05:21:25.265Z,2.02
2023-04-02T05:22:25.457Z,2.06
2023-04-02T05:23:25.614Z,2.11
2023-04-02T05:24:25.779Z,2.11
2023-04-02T05:25:25.956Z,2.14
2023-04-02T05:26:26.118Z,2.14
2023-04-02T05:27:26.348Z,2.15
2023-04-02T05:28:26.467Z,2.15
2023-04-02T05:29:26.683Z,2.18
2023-04-02T05:30:26.825Z,2.18
2023-04-02T05:31:27.168Z,2.18
2023-04-02T05:32:27.277Z,2.20
2023-04-02T05:33:27.385Z,2.24
2023-04-02T05:34:27.672Z,2.24
2023-04-02T05:35:27.968Z,2.26
2023-04-02T05:36:28.154Z,2.28
2023-04-02T05:37:28.358Z,2.29
2023-04-02T05:38:28.522Z,2.29
2023-04-02T05:39:28.701Z,2.33
2023-04-02T05:40:28.868Z,2.38
2023-04-02T05:41:29.070Z,2.36
2023-04-02T05:42:29.370Z,2.36
2023-04-02T05:43:29.529Z,2.39
2023-04-02T05:44:29.850Z,2.39
2023-04-02T05:45:30.032Z,2.38
2023-04-02T05:46:30.366Z,2.38
2023-04-02T05:47:30.547Z,2.36
2023-04-02T05:48:30.767Z,2.35
2023-04-02T05:49:30.960Z,2.39
2023-04-02T05:50:31.173Z,2.39
2023-04-02T05:51:31.315Z,2.42
2023-04-02T05:52:31.553Z,2.44
2023-04-02T05:53:31.793Z,2.46
2023-04-02T05:54:31.968Z,2.49
2023-04-02T05:55:32.197Z,2.54
2023-04-02T05:56:32.344Z,2.57
2023-04-02T05:57:44.503Z,2.60
2023-04-02T05:58:36.718Z,2.61
2023-04-02T05:59:32.929Z,2.62
2023-04-02T06:00:33.078Z,2.64
2023-04-02T06:01:33.417Z,2.67
2023-04-02T06:02:33.664Z,2.68
2023-04-02T06:03:33.829Z,2.69
2023-04-02T06:04:34.042Z,2.74
2023-04-02T06:05:34.585Z,2.77
2023-04-02T06:06:34.513Z,2.80
2023-04-02T06:07:34.627Z,2.83
2023-04-02T06:08:34.781Z,2.83
2023-04-02T06:09:35.223Z,2.83
2023-04-02T06:10:35.280Z,2.85
2023-04-02T06:11:35.464Z,2.85
2023-04-02T06:12:35.675Z,2.89
2023-04-02T06:13:35.977Z,2.90
2023-04-02T06:14:36.124Z,2.92
2023-04-02T06:15:36.551Z,2.97
2023-04-02T06:16:36.656Z,3.00
2023-04-02T06:17:36.824Z,3.00
2023-04-02T06:18:37.071Z,3.03
2023-04-02T06:19:37.395Z,3.04
2023-04-02T06:20:37.460Z,3.05
2023-04-02T06:21:37.739Z,3.08
2023-04-02T06:22:37.949Z,3.11
2023-04-02T06:23:38.246Z,3.10
2023-04-02T06:24:38.519Z,3.13
2023-04-02T06:25:38.715Z,3.18
2023-04-02T06:26:38.892Z,3.21
2023-04-02T06:27:39.097Z,3.19
2023-04-02T06:28:39.265Z,3.22
2023-04-02T06:29:39.442Z,3.26
2023-04-02T06:30:39.681Z,3.28
2023-04-02T06:31:39.828Z,3.29
2023-04-02T06:32:40.072Z,3.29
2023-04-02T06:33:40.166Z,3.31
2023-04-02T06:34:40.465Z,3.36
2023-04-02T06:35:40.682Z,3.40
2023-04-02T06:36:40.956Z,3.37
2023-04-02T06:37:41.196Z,3.42
2023-04-02T06:38:41.317Z,3.50
2023-04-02T06:39:41.493Z,3.53
2023-04-02T06:40:41.677Z,3.59
2023-04-02T06:41:41.857Z,3.60
2023-04-02T06:42:42.065Z,3.62
2023-04-02T06:43:42.337Z,3.63
2023-04-02T06:44:42.685Z,3.68
2023-04-02T06:45:42.905Z,3.73
2023-04-02T06:46:42.983Z,3.78
2023-04-02T06:47:43.217Z,3.78
2023-04-02T06:48:43.349Z,3.80
2023-04-02T06:49:43.546Z,3.83
2023-04-02T06:50:43.725Z,3.91
2023-04-02T06:51:43.901Z,3.94
2023-04-02T06:52:44.109Z,3.99
2023-04-02T06:53:44.271Z,4.02
2023-04-02T06:54:44.437Z,4.04
2023-04-02T06:55:44.612Z,4.06
2023-04-02T06:56:44.770Z,4.12
2023-04-02T06:57:44.980Z,4.08
2023-04-02T06:58:45.263Z,4.16
2023-04-02T06:59:45.423Z,4.20
2023-04-02T07:00:45.602Z,4.19
2023-04-02T07:01:45.812Z,4.24
2023-04-02T07:02:45.998Z,4.16
2023-04-02T07:03:46.116Z,4.26
2023-04-02T07:04:46.310Z,4.31
2023-04-02T07:05:46.470Z,4.28
2023-04-02T07:06:46.660Z,4.41
2023-04-02T07:07:46.863Z,4.40
2023-04-02T07:08:47.044Z,4.44
2023-04-02T07:09:47.259Z,4.45
2023-04-02T07:10:47.425Z,4.42
2023-04-02T07:11:47.714Z,4.42
2023-04-02T07:12:47.909Z,4.41
2023-04-02T07:13:48.082Z,4.49
2023-04-02T07:14:48.287Z,4.44
2023-04-02T07:15:48.527Z,4.45
2023-04-02T07:16:48.632Z,4.52
2023-04-02T07:17:49.046Z,4.45
2023-04-02T07:18:49.141Z,4.49
2023-04-02T07:19:49.335Z,4.50
2023-04-02T07:20:49.478Z,4.56
2023-04-02T07:21:49.658Z,4.53
2023-04-02T07:22:49.871Z,4.49
2023-04-02T07:23:50.040Z,4.50
2023-04-02T07:24:50.214Z,4.52
2023-04-02T07:25:50.402Z,4.58
2023-04-02T07:26:50.570Z,4.42
2023-04-02T07:27:50.790Z,4.44
2023-04-02T07:28:51.099Z,4.45
2023-04-02T07:29:51.354Z,4.40
2023-04-02T07:30:51.537Z,4.45
2023-04-02T07:31:51.793Z,4.44
2023-04-02T07:32:52.118Z,4.44
2023-04-02T07:33:52.372Z,4.42
2023-04-02T07:34:52.651Z,4.41
2023-04-02T07:35:52.953Z,4.45
2023-04-02T07:36:53.260Z,4.40
2023-04-02T07:37:53.437Z,4.37
2023-04-02T07:38:53.585Z,4.34
2023-04-02T07:39:53.779Z,4.34
2023-04-02T07:40:54.064Z,4.45
2023-04-02T07:41:54.310Z,4.50
2023-04-02T07:42:54.569Z,4.41
2023-04-02T07:43:54.905Z,4.35
2023-04-02T07:44:55.050Z,4.37
2023-04-02T07:45:55.271Z,4.34
2023-04-02T07:46:55.590Z,4.34
2023-04-02T07:47:55.817Z,4.32
2023-04-02T07:48:56.062Z,4.32
2023-04-02T07:49:56.200Z,4.31
2023-04-02T07:50:56.381Z,4.32
2023-04-02T07:51:56.685Z,4.32
2023-04-02T07:52:56.952Z,4.32
2023-04-02T07:53:57.070Z,4.32
2023-04-02T07:54:57.254Z,4.35
2023-04-02T07:55:57.490Z,4.44
2023-04-02T07:56:57.777Z,4.48
2023-04-02T07:57:57.970Z,4.53
2023-04-02T07:58:58.085Z,4.58
2023-04-02T07:59:58.295Z,4.53
2023-04-02T08:00:58.582Z,4.50
2023-04-02T08:01:58.913Z,4.55
2023-04-02T08:02:59.146Z,4.66
2023-04-02T08:03:59.380Z,4.67
2023-04-02T08:04:59.552Z,4.68
2023-04-02T08:05:59.749Z,4.75
2023-04-02T08:06:59.911Z,4.75
2023-04-02T08:08:00.124Z,4.87
2023-04-02T08:09:00.411Z,4.77
2023-04-02T08:10:01.120Z,4.86
2023-04-02T08:11:00.776Z,4.84
2023-04-02T08:12:01.086Z,4.86
2023-04-02T08:13:01.284Z,4.82
2023-04-02T08:14:02.370Z,4.93
2023-04-02T08:15:01.623Z,5.00
2023-04-02T08:16:01.799Z,4.90
2023-04-02T08:17:02.195Z,4.86
2023-04-02T08:18:02.191Z,4.73
2023-04-02T08:19:02.298Z,4.68
2023-04-02T08:20:02.483Z,4.60
2023-04-02T08:21:02.663Z,4.62
2023-04-02T08:22:02.850Z,4.63
2023-04-02T08:23:03.017Z,4.62
2023-04-02T08:24:03.160Z,4.60
2023-04-02T08:25:03.473Z,4.60
2023-04-02T08:26:03.650Z,4.59
2023-04-02T08:27:03.830Z,4.58
2023-04-02T08:28:04.098Z,4.67
2023-04-02T08:29:04.332Z,4.66
2023-04-02T08:30:04.487Z,4.68
2023-04-02T08:31:05.039Z,4.71
2023-04-02T08:32:04.985Z,4.78
2023-04-02T08:33:05.441Z,4.89
2023-04-02T08:34:05.335Z,4.93
2023-04-02T08:35:05.516Z,5.07
2023-04-02T08:36:05.740Z,5.17
2023-04-02T08:37:05.863Z,5.30
2023-04-02T08:38:06.184Z,5.36
2023-04-02T08:39:06.363Z,5.30
2023-04-02T08:40:06.583Z,5.28
2023-04-02T08:41:06.748Z,5.29
2023-04-02T08:42:06.968Z,5.36
2023-04-02T08:43:07.126Z,5.36
2023-04-02T08:44:07.466Z,5.41
2023-04-02T08:45:22.967Z,5.47
2023-04-02T08:46:07.895Z,5.48
2023-04-02T08:47:07.990Z,5.54
2023-04-02T08:48:08.219Z,5.64
2023-04-02T08:49:08.308Z,5.65
2023-04-02T08:50:08.491Z,5.64
2023-04-02T08:51:08.673Z,5.66
2023-04-02T08:52:08.868Z,5.83
2023-04-02T08:53:09.089Z,5.90
2023-04-02T08:54:09.239Z,5.76
2023-04-02T08:55:09.406Z,5.90
2023-04-02T08:56:09.627Z,6.01
2023-04-02T08:57:09.919Z,5.89
2023-04-02T08:58:10.094Z,5.98
2023-04-02T08:59:10.238Z,6.08
2023-04-02T09:00:10.415Z,6.17
2023-04-02T09:01:10.633Z,6.38
2023-04-02T09:02:10.816Z,6.57
2023-04-02T09:03:11.219Z,6.39
2023-04-02T09:04:11.164Z,6.38
2023-04-02T09:05:11.386Z,6.28
2023-04-02T09:06:11.553Z,6.31
2023-04-02T09:07:12.659Z,6.26
2023-04-02T09:08:12.009Z,6.17
2023-04-02T09:09:12.336Z,6.28
2023-04-02T09:10:12.478Z,6.42
2023-04-02T09:11:12.646Z,6.38
2023-04-02T09:12:12.818Z,6.56
2023-04-02T09:13:13.062Z,6.42
2023-04-02T09:14:13.323Z,6.45
2023-04-02T09:15:13.479Z,6.69
2023-04-02T09:16:13.686Z,6.81
2023-04-02T09:17:13.956Z,7.02
2023-04-02T09:18:14.195Z,7.06
2023-04-02T09:19:14.371Z,7.18
2023-04-02T09:20:14.525Z,7.17
2023-04-02T09:21:14.708Z,6.70
2023-04-02T09:22:14.889Z,6.59
2023-04-02T09:23:15.091Z,6.70
2023-04-02T09:24:15.251Z,6.78
2023-04-02T09:25:15.492Z,6.70
2023-04-02T09:26:15.732Z,6.69
2023-04-02T09:27:15.910Z,6.74
2023-04-02T09:28:16.109Z,6.72
2023-04-02T09:29:16.384Z,6.28
2023-04-02T09:30:16.649Z,6.28
2023-04-02T09:31:16.903Z,6.31
2023-04-02T09:32:17.078Z,6.31
2023-04-02T09:33:17.374Z,6.54
2023-04-02T09:34:17.642Z,6.67
2023-04-02T09:35:39.078Z,6.82
2023-04-02T09:36:18.037Z,6.69
2023-04-02T09:37:18.294Z,6.64
2023-04-02T09:38:18.622Z,6.64
2023-04-02T09:39:18.786Z,6.81
2023-04-02T09:40:18.963Z,7.13
2023-04-02T09:41:19.133Z,7.18
2023-04-02T09:42:19.332Z,7.43
2023-04-02T09:43:19.653Z,7.67
2023-04-02T09:44:19.845Z,7.70
2023-04-02T09:45:20.123Z,7.80
2023-04-02T09:46:20.345Z,7.98
2023-04-02T09:47:20.456Z,7.63
2023-04-02T09:48:20.684Z,8.01
2023-04-02T09:49:20.793Z,7.51
2023-04-02T09:50:20.974Z,7.69
2023-04-02T09:51:21.173Z,7.79
2023-04-02T09:52:21.475Z,7.97
2023-04-02T09:53:21.673Z,7.87
2023-04-02T09:54:21.828Z,7.70
2023-04-02T09:55:22.032Z,7.82
2023-04-02T09:56:22.175Z,8.05
2023-04-02T09:57:22.446Z,7.82
2023-04-02T09:58:22.674Z,7.61
2023-04-02T09:59:22.836Z,7.73
2023-04-02T10:00:31.661Z,7.75
2023-04-02T10:01:23.357Z,7.54
2023-04-02T10:02:23.571Z,7.32
2023-04-02T10:03:23.706Z,7.39
2023-04-02T10:04:26.250Z,7.97
2023-04-02T10:05:39.372Z,8.45
2023-04-02T10:06:24.271Z,8.76
2023-04-02T10:07:24.454Z,8.31
2023-04-02T10:08:24.645Z,8.38
2023-04-02T10:09:24.823Z,8.73
2023-04-02T10:10:26.298Z,8.48
2023-04-02T10:11:28.811Z,8.00
2023-04-02T10:12:25.377Z,7.83
2023-04-02T10:13:25.576Z,8.27
2023-04-02T10:14:25.757Z,8.26
2023-04-02T10:15:25.903Z,8.36
2023-04-02T10:16:27.043Z,8.46
2023-04-02T10:17:26.304Z,8.61
2023-04-02T10:18:26.468Z,8.16
2023-04-02T10:19:26.677Z,8.20
2023-04-02T10:20:26.821Z,8.20
2023-04-02T10:21:27.040Z,8.49
2023-04-02T10:22:27.253Z,8.30
2023-04-02T10:23:27.462Z,8.51
2023-04-02T10:24:27.626Z,8.53
2023-04-02T10:25:27.839Z,8.41
2023-04-02T10:26:28.004Z,8.58
2023-04-02T10:27:28.197Z,8.45
2023-04-02T10:28:28.416Z,8.45
2023-04-02T10:29:28.547Z,8.19
2023-04-02T10:30:28.844Z,8.01
2023-04-02T10:31:28.937Z,7.77
2023-04-02T10:32:29.164Z,7.82
2023-04-02T10:33:29.330Z,7.98
2023-04-02T10:34:29.508Z,7.87
2023-04-02T10:35:29.684Z,7.87
2023-04-02T10:36:29.854Z,7.98
2023-04-02T10:37:30.051Z,7.95
2023-04-02T10:38:30.327Z,7.79
2023-04-02T10:39:30.432Z,7.60
2023-04-02T10:40:30.612Z,7.57
2023-04-02T10:41:30.802Z,7.38
2023-04-02T10:42:30.977Z,7.48
2023-04-02T10:43:31.217Z,7.75
2023-04-02T10:44:31.360Z,7.95
2023-04-02T10:45:31.564Z,7.97
2023-04-02T10:46:31.801Z,8.13
2023-04-02T10:47:31.965Z,8.00
2023-04-02T10:48:32.219Z,7.97
2023-04-02T10:49:32.384Z,7.95
2023-04-02T10:50:32.558Z,7.90
2023-04-02T10:51:32.767Z,8.13
2023-04-02T10:52:32.931Z,8.28
2023-04-02T10:53:33.174Z,8.09
2023-04-02T10:54:33.341Z,8.06
2023-04-02T10:55:33.954Z,8.10
2023-04-02T10:56:44.147Z,8.18
2023-04-02T10:57:33.960Z,8.36
2023-04-02T10:58:34.168Z,8.12
2023-04-02T10:59:34.306Z,8.00
2023-04-02T11:00:34.534Z,8.09
2023-04-02T11:01:34.786Z,8.38
2023-04-02T11:02:34.966Z,8.41
2023-04-02T11:03:35.162Z,8.38
2023-04-02T11:04:35.263Z,8.33
2023-04-02T11:05:35.660Z,8.36
2023-04-02T11:06:35.590Z,8.67
2023-04-02T11:07:35.795Z,8.64
2023-04-02T11:08:36.003Z,8.53
2023-04-02T11:09:36.172Z,8.63
2023-04-02T11:10:36.379Z,8.64
2023-04-02T11:11:36.596Z,8.41
2023-04-02T11:12:41.404Z,8.60
2023-04-02T11:13:37.001Z,8.91
2023-04-02T11:14:37.152Z,8.97
2023-04-02T11:15:37.548Z,8.63
2023-04-02T11:16:41.260Z,8.16
2023-04-02T11:17:37.796Z,8.45
2023-04-02T11:18:37.972Z,8.51
2023-04-02T11:19:38.101Z,8.94
2023-04-02T11:20:38.314Z,8.60
2023-04-02T11:21:51.116Z,7.93
2023-04-02T11:22:38.653Z,8.01
2023-04-02T11:23:38.830Z,7.79
2023-04-02T11:24:38.993Z,7.91
2023-04-02T11:25:39.207Z,8.19
2023-04-02T11:26:39.389Z,8.44
2023-04-02T11:27:39.559Z,8.53
2023-04-02T11:28:39.749Z,8.70
2023-04-02T11:29:39.953Z,8.42
2023-04-02T11:30:40.143Z,8.74
2023-04-02T11:31:40.361Z,8.71
2023-04-02T11:32:40.660Z,8.95
2023-04-02T11:33:44.253Z,8.76
2023-04-02T11:34:40.922Z,8.64
2023-04-02T11:35:41.167Z,8.63
2023-04-02T11:36:41.312Z,8.88
2023-04-02T11:37:41.484Z,8.94
2023-04-02T11:38:41.704Z,8.78
2023-04-02T11:39:41.853Z,8.53
2023-04-02T11:40:42.064Z,8.51
2023-04-02T11:41:42.225Z,8.27
2023-04-02T11:42:42.449Z,8.34
2023-04-02T11:43:42.613Z,8.26
2023-04-02T11:44:42.791Z,8.24
2023-04-02T11:45:52.048Z,8.20
2023-04-02T11:46:43.225Z,8.45
2023-04-02T11:47:43.414Z,8.67
2023-04-02T11:48:43.606Z,8.44
2023-04-02T11:49:43.748Z,8.51
2023-04-02T11:50:43.932Z,8.41
2023-04-02T11:51:44.121Z,8.15
2023-04-02T11:52:44.315Z,8.19
2023-04-02T11:53:44.544Z,8.46
2023-04-02T11:54:44.732Z,8.69
2023-04-02T11:55:44.940Z,8.84
2023-04-02T11:56:45.114Z,8.73
2023-04-02T11:57:45.313Z,8.09
2023-04-02T11:58:45.539Z,8.30
2023-04-02T11:59:45.723Z,8.27
2023-04-02T12:00:45.881Z,8.27
2023-04-02T12:01:46.087Z,8.30
2023-04-02T12:02:46.401Z,8.71
2023-04-02T12:03:46.605Z,8.87
2023-04-02T12:04:46.684Z,8.61
2023-04-02T12:05:46.945Z,8.58
2023-04-02T12:06:47.362Z,8.31
2023-04-02T12:07:47.499Z,8.23
2023-04-02T12:08:57.062Z,8.63
2023-04-02T12:09:47.605Z,8.69
2023-04-02T12:10:47.800Z,8.60
2023-04-02T12:11:48.551Z,8.69
2023-04-02T12:12:48.192Z,8.88
2023-04-02T12:13:48.390Z,9.10
2023-04-02T12:14:48.540Z,8.95
2023-04-02T12:15:48.749Z,8.84
2023-04-02T12:16:48.985Z,8.79
2023-04-02T12:17:49.168Z,8.84
2023-04-02T12:18:49.361Z,8.97
2023-04-02T12:19:49.513Z,8.88
2023-04-02T12:20:49.719Z,8.69
2023-04-02T12:21:49.902Z,8.34
2023-04-02T12:22:50.198Z,8.34
2023-04-02T12:23:50.296Z,8.49
2023-04-02T12:24:50.461Z,8.46
2023-04-02T12:25:50.620Z,8.74
2023-04-02T12:26:50.817Z,8.76
2023-04-02T12:27:51.030Z,8.66
2023-04-02T12:28:51.200Z,8.69
2023-04-02T12:29:51.381Z,8.99
2023-04-02T12:30:51.628Z,9.14
2023-04-02T12:31:51.773Z,8.73
2023-04-02T12:32:52.007Z,8.91
2023-04-02T12:33:52.149Z,9.18
2023-04-02T12:34:52.296Z,8.51
2023-04-02T12:35:52.536Z,8.67
2023-04-02T12:36:52.695Z,8.71
2023-04-02T12:37:52.915Z,8.51
2023-04-02T12:38:53.092Z,8.61
2023-04-02T12:39:53.273Z,8.70
2023-04-02T12:40:53.435Z,8.92
2023-04-02T12:41:53.629Z,9.10
2023-04-02T12:42:53.823Z,8.71
2023-04-02T12:43:54.043Z,8.63
2023-04-02T12:44:54.205Z,8.89
2023-04-02T12:45:54.398Z,9.00
2023-04-02T12:46:54.576Z,9.10
2023-04-02T12:47:54.810Z,8.53
2023-04-02T12:48:55.001Z,8.70
2023-04-02T12:49:55.155Z,9.14
2023-04-02T12:50:55.358Z,8.95
2023-04-02T12:51:55.569Z,9.08
2023-04-02T12:52:55.755Z,9.11
2023-04-02T12:53:55.968Z,8.56
2023-04-02T12:54:56.125Z,8.69
2023-04-02T12:55:56.360Z,8.88
2023-04-02T12:56:57.808Z,8.64
2023-04-02T12:57:56.740Z,8.88
2023-04-02T12:58:56.945Z,9.18
2023-04-02T12:59:57.095Z,9.34
2023-04-02T13:00:57.302Z,8.61
2023-04-02T13:01:57.570Z,8.79
2023-04-02T13:02:57.804Z,9.14
2023-04-02T13:03:57.934Z,8.97
2023-04-02T13:04:58.074Z,8.53
2023-04-02T13:05:58.284Z,8.74
2023-04-02T13:06:58.476Z,9.31
2023-04-02T13:07:58.671Z,9.23
2023-04-02T13:08:58.889Z,9.04
2023-04-02T13:09:59.045Z,8.66
2023-04-02T13:10:59.254Z,8.52
2023-04-02T13:11:59.449Z,8.56
2023-04-02T13:12:59.634Z,8.85
2023-04-02T13:13:59.836Z,8.70
2023-04-02T13:15:00.025Z,8.52
2023-04-02T13:16:00.303Z,8.87
2023-04-02T13:17:00.434Z,8.82
2023-04-02T13:18:00.656Z,8.51
2023-04-02T13:19:00.834Z,8.67
2023-04-02T13:20:01.003Z,8.78
2023-04-02T13:21:01.208Z,8.55
2023-04-02T13:22:01.408Z,8.73